createdAt,value
2019-03-16T00:00:11.589Z,1.43
2019-03-16T00:02:11.799Z,0.64
2019-03-16T00:04:11.743Z,1.03
2019-03-16T00:06:11.544Z,1.66
2019-03-16T00:08:11.783Z,1.02
2019-03-16T00:10:11.873Z,0.76
2019-03-16T00:12:11.665Z,0.64
2019-03-16T00:14:11.595Z,1.45
2019-03-16T00:16:11.785Z,0.55
2019-03-16T00:18:11.934Z,0.41
2019-03-16T00:20:11.919Z,0.99
2019-03-16T00:22:11.823Z,1.18
2019-03-16T00:24:12.438Z,0.30
2019-03-16T00:26:11.636Z,0.11
2019-03-16T00:28:11.649Z,1.23
2019-03-16T00:30:11.570Z,1.00
2019-03-16T00:32:13.744Z,0.79
2019-03-16T00:34:11.685Z,1.42
2019-03-16T00:36:11.695Z,1.31
2019-03-16T00:38:11.712Z,0.55
2019-03-16T00:40:11.683Z,0.70
2019-03-16T00:42:12.036Z,0.99
2019-03-16T00:44:11.843Z,0.51
2019-03-16T00:46:11.547Z,0.59
2019-03-16T00:48:11.563Z,0.63
2019-03-16T00:50:11.669Z,1.24
2019-03-16T00:52:11.898Z,2.46
2019-03-16T00:54:11.534Z,0.96
2019-03-16T00:56:11.814Z,1.51
2019-03-16T00:58:11.747Z,1.80
2019-03-16T01:00:11.757Z,2.55
2019-03-16T01:02:11.848Z,2.46
2019-03-16T01:04:11.856Z,1.63
2019-03-16T01:06:11.719Z,1.05
2019-03-16T01:08:11.684Z,0.96
2019-03-16T01:10:11.892Z,0.78
2019-03-16T01:12:11.909Z,1.27
2019-03-16T01:14:11.854Z,0.90
2019-03-16T01:16:11.720Z,0.57
2019-03-16T01:18:11.977Z,0.34
2019-03-16T01:20:11.745Z,0.46
2019-03-16T01:22:11.860Z,0.52
2019-03-16T01:24:11.601Z,0.05
2019-03-16T01:26:11.657Z,0.32
2019-03-16T01:28:11.789Z,0.01
2019-03-16T01:30:11.814Z,0.00
2019-03-16T01:32:11.984Z,0.00
2019-03-16T01:34:11.715Z,0.02
2019-03-16T01:36:11.937Z,0.00
2019-03-16T01:38:11.956Z,0.08
2019-03-16T01:40:11.970Z,0.00
2019-03-16T01:42:11.814Z,0.00
2019-03-16T01:44:11.682Z,0.23
2019-03-16T01:46:11.814Z,0.19
2019-03-16T01:48:11.832Z,0.11
2019-03-16T01:50:11.832Z,0.00
2019-03-16T01:52:11.816Z,0.00
2019-03-16T01:54:11.704Z,0.00
2019-03-16T01:56:11.866Z,0.00
2019-03-16T01:58:11.980Z,0.00
2019-03-16T02:00:11.893Z,0.00
2019-03-16T02:02:11.804Z,0.00
2019-03-16T02:04:11.912Z,0.15
2019-03-16T02:06:11.714Z,0.12
2019-03-16T02:08:11.839Z,0.47
2019-03-16T02:10:11.846Z,0.19
2019-03-16T02:12:11.965Z,0.49
2019-03-16T02:14:11.904Z,0.53
2019-03-16T02:16:11.897Z,0.10
2019-03-16T02:18:11.790Z,0.00
2019-03-16T02:20:12.305Z,0.30
2019-03-16T02:22:11.919Z,0.24
2019-03-16T02:24:11.722Z,0.04
2019-03-16T02:26:11.713Z,0.30
2019-03-16T02:28:11.846Z,0.30
2019-03-16T02:30:11.868Z,0.18
2019-03-16T02:32:11.753Z,0.45
2019-03-16T02:34:11.982Z,1.94
2019-03-16T02:36:11.789Z,0.99
2019-03-16T02:38:11.834Z,1.72
2019-03-16T02:40:11.712Z,0.46
2019-03-16T02:42:11.933Z,0.46
2019-03-16T02:44:11.981Z,0.11
2019-03-16T02:46:11.960Z,0.00
2019-03-16T02:48:11.754Z,0.33
2019-03-16T02:50:11.881Z,0.49
2019-03-16T02:52:11.991Z,1.65
2019-03-16T02:54:11.962Z,1.54
2019-03-16T02:56:11.950Z,1.26
2019-03-16T02:58:12.028Z,0.52
2019-03-16T03:00:11.734Z,0.98
2019-03-16T03:02:11.720Z,0.34
2019-03-16T03:04:11.856Z,0.85
2019-03-16T03:06:11.797Z,0.82
2019-03-16T03:08:11.677Z,0.16
2019-03-16T03:10:11.913Z,0.19
2019-03-16T03:12:11.904Z,0.15
2019-03-16T03:14:11.912Z,0.00
2019-03-16T03:16:11.726Z,0.76
2019-03-16T03:18:11.941Z,0.98
2019-03-16T03:20:11.992Z,0.70
2019-03-16T03:22:11.754Z,0.00
2019-03-16T03:24:11.759Z,0.38
2019-03-16T03:26:11.889Z,0.60
2019-03-16T03:28:12.105Z,1.37
2019-03-16T03:30:11.843Z,0.29
2019-03-16T03:32:12.042Z,0.74
2019-03-16T03:34:11.855Z,0.15
2019-03-16T03:36:11.797Z,1.00
2019-03-16T03:38:11.951Z,0.25
2019-03-16T03:40:11.806Z,0.18
2019-03-16T03:42:11.879Z,0.08
2019-03-16T03:44:12.099Z,0.15
2019-03-16T03:46:11.834Z,0.03
2019-03-16T03:48:12.092Z,0.20
2019-03-16T03:50:12.029Z,0.22
2019-03-16T03:52:12.035Z,0.25
2019-03-16T03:54:11.947Z,0.10
2019-03-16T03:56:12.062Z,0.00
2019-03-16T03:58:12.108Z,0.00
2019-03-16T04:00:12.078Z,0.03
2019-03-16T04:02:12.087Z,0.00
2019-03-16T04:04:15.738Z,0.00
2019-03-16T04:06:12.326Z,0.00
2019-03-16T04:08:12.136Z,0.07
2019-03-16T04:10:11.841Z,0.30
2019-03-16T04:12:12.046Z,0.08
2019-03-16T04:14:11.939Z,0.00
2019-03-16T04:16:11.855Z,0.00
2019-03-16T04:18:11.965Z,0.00
2019-03-16T04:20:12.110Z,0.00
2019-03-16T04:22:12.111Z,0.00
2019-03-16T04:24:12.013Z,0.00
2019-03-16T04:26:11.836Z,0.00
2019-03-16T04:28:11.938Z,0.00
2019-03-16T04:30:11.945Z,0.00
2019-03-16T04:32:12.216Z,0.00
2019-03-16T04:34:12.073Z,0.00
2019-03-16T04:36:11.887Z,0.00
2019-03-16T04:38:11.994Z,0.00
2019-03-16T04:40:12.001Z,0.00
2019-03-16T04:42:12.022Z,0.00
2019-03-16T04:44:12.127Z,0.00
2019-03-16T04:46:12.043Z,0.00
2019-03-16T04:48:11.917Z,0.00
2019-03-16T04:50:11.880Z,0.00
2019-03-16T04:52:12.071Z,0.00
2019-03-16T04:54:11.984Z,0.00
2019-03-16T04:56:12.011Z,0.00
2019-03-16T04:58:12.009Z,0.00
2019-03-16T05:00:12.331Z,0.00
2019-03-16T05:02:12.026Z,0.00
2019-03-16T05:04:12.139Z,0.00
2019-03-16T05:06:12.493Z,0.00
2019-03-16T05:08:12.072Z,0.00
2019-03-16T05:10:12.004Z,0.00
2019-03-16T05:12:12.176Z,0.02
2019-03-16T05:14:12.156Z,0.00
2019-03-16T05:16:12.010Z,0.01
2019-03-16T05:18:11.919Z,0.01
2019-03-16T05:20:12.038Z,0.00
2019-03-16T05:22:12.246Z,0.00
2019-03-16T05:24:12.162Z,0.10
2019-03-16T05:26:12.176Z,0.11
2019-03-16T05:28:12.192Z,0.25
2019-03-16T05:30:12.198Z,0.00
2019-03-16T05:32:12.206Z,0.12
2019-03-16T05:34:12.018Z,0.00
2019-03-16T05:36:11.816Z,0.78
2019-03-16T05:38:12.139Z,0.38
2019-03-16T05:40:12.354Z,0.06
2019-03-16T05:42:12.160Z,0.29
2019-03-16T05:44:12.315Z,0.73
2019-03-16T05:46:12.085Z,0.14
2019-03-16T05:48:12.199Z,0.01
2019-03-16T05:50:12.206Z,0.04
2019-03-16T05:52:12.121Z,0.06
2019-03-16T05:54:12.042Z,0.15
2019-03-16T05:56:12.142Z,0.00
2019-03-16T05:58:12.074Z,0.69
2019-03-16T06:00:12.168Z,0.34
2019-03-16T06:02:12.091Z,0.10
2019-03-16T06:04:12.184Z,0.34
2019-03-16T06:06:12.132Z,0.48
2019-03-16T06:08:12.331Z,0.07
2019-03-16T06:10:11.929Z,0.34
2019-03-16T06:12:12.236Z,0.00
2019-03-16T06:14:12.036Z,0.16
2019-03-16T06:16:12.155Z,0.68
2019-03-16T06:18:13.309Z,0.35
2019-03-16T06:20:12.382Z,0.23
2019-03-16T06:22:12.081Z,0.00
2019-03-16T06:24:12.197Z,0.30
2019-03-16T06:26:12.012Z,0.13
2019-03-16T06:28:12.232Z,0.12
2019-03-16T06:30:12.232Z,0.00
2019-03-16T06:32:12.043Z,0.00
2019-03-16T06:34:12.366Z,0.00
2019-03-16T06:36:12.081Z,0.00
2019-03-16T06:38:12.039Z,0.00
2019-03-16T06:40:12.213Z,0.36
2019-03-16T06:42:12.099Z,0.08
2019-03-16T06:44:12.236Z,0.00
2019-03-16T06:46:12.227Z,0.12
2019-03-16T06:48:12.357Z,0.20
2019-03-16T06:50:12.034Z,0.12
2019-03-16T06:52:11.910Z,0.78
2019-03-16T06:54:12.171Z,1.01
2019-03-16T06:56:12.800Z,0.19
2019-03-16T06:58:12.396Z,0.47
2019-03-16T07:00:12.210Z,0.33
2019-03-16T07:02:12.135Z,0.33
2019-03-16T07:04:12.227Z,0.01
2019-03-16T07:06:12.245Z,0.08
2019-03-16T07:08:12.150Z,0.80
2019-03-16T07:10:11.961Z,0.25
2019-03-16T07:12:12.180Z,0.00
2019-03-16T07:14:12.399Z,0.26
2019-03-16T07:16:12.091Z,0.70
2019-03-16T07:18:12.513Z,1.05
2019-03-16T07:20:12.253Z,0.55
2019-03-16T07:22:12.254Z,1.84
2019-03-16T07:24:11.914Z,1.67
2019-03-16T07:26:15.157Z,1.34
2019-03-16T07:28:12.299Z,1.97
2019-03-16T07:30:12.136Z,0.76
2019-03-16T07:32:12.381Z,1.58
2019-03-16T07:34:12.209Z,2.31
2019-03-16T07:36:12.245Z,1.83
2019-03-16T07:38:12.009Z,1.21
2019-03-16T07:40:12.095Z,1.91
2019-03-16T07:42:12.236Z,2.25
2019-03-16T07:44:12.211Z,1.37
2019-03-16T07:46:12.423Z,2.73
2019-03-16T07:48:12.188Z,2.53
2019-03-16T07:50:12.487Z,1.79
2019-03-16T07:52:12.192Z,2.57
2019-03-16T07:54:12.306Z,2.06
2019-03-16T07:56:12.327Z,2.25
2019-03-16T07:58:12.421Z,1.19
2019-03-16T08:00:12.446Z,1.62
2019-03-16T08:02:12.166Z,1.93
2019-03-16T08:04:12.155Z,2.39
2019-03-16T08:06:12.376Z,1.41
2019-03-16T08:08:12.183Z,2.65
2019-03-16T08:10:12.199Z,1.55
2019-03-16T08:12:11.966Z,2.87
2019-03-16T08:14:12.319Z,2.09
2019-03-16T08:16:12.328Z,1.44
2019-03-16T08:18:12.149Z,1.60
2019-03-16T08:20:12.049Z,2.00
2019-03-16T08:22:12.261Z,1.04
2019-03-16T08:24:11.931Z,1.56
2019-03-16T08:26:12.186Z,1.94
2019-03-16T08:28:12.100Z,2.34
2019-03-16T08:30:12.217Z,2.24
2019-03-16T08:32:12.114Z,2.02
2019-03-16T08:34:12.331Z,1.37
2019-03-16T08:36:12.126Z,2.05
2019-03-16T08:38:12.150Z,2.76
2019-03-16T08:40:12.160Z,2.09
2019-03-16T08:42:12.495Z,2.41
2019-03-16T08:44:12.274Z,2.27
2019-03-16T08:46:12.213Z,1.66
2019-03-16T08:48:22.210Z,2.25
2019-03-16T08:50:12.319Z,2.27
2019-03-16T08:52:12.345Z,2.05
2019-03-16T08:54:12.152Z,1.83
2019-03-16T08:56:12.353Z,2.55
2019-03-16T08:58:12.254Z,1.99
2019-03-16T09:00:12.161Z,1.31
2019-03-16T09:02:12.395Z,2.01
2019-03-16T09:04:12.204Z,2.05
2019-03-16T09:06:12.169Z,2.36
2019-03-16T09:08:12.015Z,1.82
2019-03-16T09:10:11.984Z,1.45
2019-03-16T09:12:12.240Z,2.95
2019-03-16T09:14:12.466Z,2.07
2019-03-16T09:16:12.374Z,3.26
2019-03-16T09:18:12.316Z,2.37
2019-03-16T09:20:12.392Z,2.38
2019-03-16T09:22:12.407Z,2.09
2019-03-16T09:24:12.318Z,2.00
2019-03-16T09:26:12.432Z,2.18
2019-03-16T09:28:18.708Z,2.14
2019-03-16T09:30:12.419Z,1.55
2019-03-16T09:32:12.374Z,2.35
2019-03-16T09:34:12.287Z,3.32
2019-03-16T09:36:12.214Z,2.73
2019-03-16T09:38:12.200Z,2.45
2019-03-16T09:40:12.311Z,1.36
2019-03-16T09:42:12.238Z,2.56
2019-03-16T09:44:12.250Z,1.70
2019-03-16T09:46:12.349Z,3.85
2019-03-16T09:48:12.260Z,1.79
2019-03-16T09:50:12.266Z,1.87
2019-03-16T09:52:12.374Z,1.76
2019-03-16T09:54:12.392Z,1.87
2019-03-16T09:56:12.327Z,1.93
2019-03-16T09:58:12.483Z,1.35
2019-03-16T10:00:12.326Z,2.07
2019-03-16T10:02:12.437Z,1.98
2019-03-16T10:04:12.445Z,2.59
2019-03-16T10:06:12.461Z,2.25
2019-03-16T10:08:12.399Z,3.07
2019-03-16T10:10:12.594Z,2.43
2019-03-16T10:12:12.393Z,2.01
2019-03-16T10:14:12.411Z,1.89
2019-03-16T10:16:12.412Z,2.03
2019-03-16T10:18:12.338Z,1.85
2019-03-16T10:20:12.235Z,1.78
2019-03-16T10:22:12.452Z,2.55
2019-03-16T10:24:12.571Z,2.83
2019-03-16T10:26:12.365Z,2.53
2019-03-16T10:28:12.503Z,2.53
2019-03-16T10:30:12.318Z,3.86
2019-03-16T10:32:12.281Z,2.77
2019-03-16T10:34:12.637Z,3.29
2019-03-16T10:36:12.418Z,3.64
2019-03-16T10:38:12.322Z,2.74
2019-03-16T10:40:12.459Z,2.96
2019-03-16T10:42:12.470Z,2.03
2019-03-16T10:44:12.469Z,2.31
2019-03-16T10:46:12.379Z,2.36
2019-03-16T10:48:12.710Z,1.51
2019-03-16T10:50:12.432Z,2.90
2019-03-16T10:52:12.294Z,2.09
2019-03-16T10:54:12.380Z,1.69
2019-03-16T10:56:12.652Z,1.10
2019-03-16T10:58:12.349Z,2.10
2019-03-16T11:00:12.441Z,2.01
2019-03-16T11:02:12.368Z,2.12
2019-03-16T11:04:12.413Z,1.73
2019-03-16T11:06:12.589Z,2.15
2019-03-16T11:08:12.401Z,2.22
2019-03-16T11:10:12.523Z,1.74
2019-03-16T11:12:12.204Z,1.33
2019-03-16T11:14:12.450Z,3.47
2019-03-16T11:16:12.273Z,5.06
2019-03-16T11:18:12.735Z,2.72
2019-03-16T11:20:12.483Z,1.87
2019-03-16T11:22:12.368Z,2.25
2019-03-16T11:24:12.333Z,1.95
2019-03-16T11:26:12.393Z,2.79
2019-03-16T11:28:12.204Z,2.02
2019-03-16T11:30:12.779Z,2.67
2019-03-16T11:32:12.556Z,2.72
2019-03-16T11:34:12.514Z,3.31
2019-03-16T11:36:12.335Z,3.06
2019-03-16T11:38:12.381Z,3.45
2019-03-16T11:40:12.272Z,1.86
2019-03-16T11:42:12.299Z,2.25
2019-03-16T11:44:12.434Z,3.24
2019-03-16T11:46:12.739Z,4.05
2019-03-16T11:48:12.544Z,4.05
2019-03-16T11:50:12.445Z,3.35
2019-03-16T11:52:12.758Z,2.29
2019-03-16T11:54:12.451Z,2.69
2019-03-16T11:56:17.888Z,3.04
2019-03-16T11:58:12.596Z,3.06
2019-03-16T12:00:12.539Z,4.51
2019-03-16T12:02:12.421Z,2.66
2019-03-16T12:04:13.038Z,3.10
2019-03-16T12:06:12.648Z,3.00
2019-03-16T12:08:12.673Z,3.58
2019-03-16T12:10:12.261Z,2.72
2019-03-16T12:12:12.476Z,4.50
2019-03-16T12:14:12.450Z,3.50
2019-03-16T12:16:12.391Z,3.65
2019-03-16T12:18:12.537Z,3.72
2019-03-16T12:20:12.424Z,2.61
2019-03-16T12:22:12.185Z,4.37
2019-03-16T12:24:12.273Z,2.99
2019-03-16T12:26:12.559Z,2.79
2019-03-16T12:28:12.687Z,2.97
2019-03-16T12:30:12.784Z,2.98
2019-03-16T12:32:12.396Z,3.00
2019-03-16T12:34:12.534Z,3.84
2019-03-16T12:36:12.824Z,3.47
2019-03-16T12:38:12.619Z,3.74
2019-03-16T12:40:12.533Z,3.81
2019-03-16T12:42:13.062Z,3.72
2019-03-16T12:44:12.340Z,2.16
2019-03-16T12:46:12.776Z,2.20
2019-03-16T12:48:12.590Z,2.89
2019-03-16T12:50:12.495Z,2.83
2019-03-16T12:52:12.406Z,3.76
2019-03-16T12:54:12.518Z,3.44
2019-03-16T12:56:12.529Z,3.35
2019-03-16T12:58:12.538Z,4.62
2019-03-16T13:00:12.486Z,4.00
2019-03-16T13:02:12.537Z,4.25
2019-03-16T13:04:12.570Z,3.04
2019-03-16T13:06:12.482Z,2.71
2019-03-16T13:08:12.470Z,3.68
2019-03-16T13:10:12.511Z,2.73
2019-03-16T13:12:12.752Z,4.09
2019-03-16T13:14:12.636Z,3.92
2019-03-16T13:16:12.641Z,3.20
2019-03-16T13:18:12.657Z,2.87
2019-03-16T13:20:12.706Z,4.41
2019-03-16T13:22:12.366Z,3.42
2019-03-16T13:24:12.592Z,2.65
2019-03-16T13:26:12.596Z,3.61
2019-03-16T13:28:12.918Z,3.75
2019-03-16T13:30:12.927Z,5.90
2019-03-16T13:32:12.681Z,3.26
2019-03-16T13:34:12.544Z,4.01
2019-03-16T13:36:12.661Z,3.04
2019-03-16T13:38:12.670Z,3.94
2019-03-16T13:40:12.587Z,4.00
2019-03-16T13:42:12.716Z,4.23
2019-03-16T13:44:13.009Z,4.30
2019-03-16T13:46:12.416Z,4.80
2019-03-16T13:48:12.728Z,3.75
2019-03-16T13:50:12.331Z,3.18
2019-03-16T13:52:12.345Z,3.04
2019-03-16T13:54:12.556Z,5.24
2019-03-16T13:56:12.588Z,6.42
2019-03-16T13:58:12.574Z,4.86
2019-03-16T14:00:12.883Z,3.31
2019-03-16T14:02:12.601Z,3.12
2019-03-16T14:04:12.825Z,4.39
2019-03-16T14:06:12.812Z,3.98
2019-03-16T14:08:12.535Z,4.53
2019-03-16T14:10:12.757Z,4.03
2019-03-16T14:12:12.451Z,4.54
2019-03-16T14:14:12.724Z,3.23
2019-03-16T14:16:12.682Z,2.93
2019-03-16T14:18:12.597Z,3.58
2019-03-16T14:20:12.652Z,4.08
2019-03-16T14:22:12.622Z,2.22
2019-03-16T14:24:12.635Z,2.64
2019-03-16T14:26:12.607Z,2.78
2019-03-16T14:28:12.650Z,2.70
2019-03-16T14:30:25.564Z,3.39
2019-03-16T14:32:12.680Z,4.55
2019-03-16T14:34:12.898Z,4.59
2019-03-16T14:36:12.749Z,2.94
2019-03-16T14:38:12.851Z,3.81
2019-03-16T14:40:13.038Z,3.09
2019-03-16T14:42:12.526Z,2.65
2019-03-16T14:44:12.459Z,4.02
2019-03-16T14:46:12.461Z,3.85
2019-03-16T14:48:15.661Z,2.69
2019-03-16T14:50:12.590Z,2.92
2019-03-16T14:52:15.972Z,3.63
2019-03-16T14:54:12.609Z,3.55
2019-03-16T14:56:12.621Z,4.40
2019-03-16T14:58:12.733Z,5.22
2019-03-16T15:00:12.846Z,3.57
2019-03-16T15:02:12.956Z,2.69
2019-03-16T15:04:12.766Z,2.36
2019-03-16T15:06:12.666Z,3.32
2019-03-16T15:08:12.689Z,3.20
2019-03-16T15:10:12.496Z,1.46
2019-03-16T15:12:15.799Z,2.86
2019-03-16T15:14:21.478Z,3.41
2019-03-16T15:16:12.625Z,3.62
2019-03-16T15:18:15.571Z,2.93
2019-03-16T15:20:12.564Z,2.81
2019-03-16T15:22:13.074Z,1.82
2019-03-16T15:24:15.473Z,3.52
2019-03-16T15:26:12.893Z,4.54
2019-03-16T15:28:15.207Z,3.96
2019-03-16T15:30:12.651Z,3.53
2019-03-16T15:32:12.896Z,3.19
2019-03-16T15:34:12.631Z,3.65
2019-03-16T15:36:12.751Z,3.35
2019-03-16T15:38:12.445Z,2.78
2019-03-16T15:40:12.735Z,3.14
2019-03-16T15:42:13.185Z,3.79
2019-03-16T15:44:15.554Z,4.05
2019-03-16T15:46:12.523Z,4.16
2019-03-16T15:48:12.934Z,4.31
2019-03-16T15:50:12.812Z,3.61
2019-03-16T15:52:12.430Z,4.62
2019-03-16T15:54:12.838Z,2.99
2019-03-16T15:56:12.758Z,4.01
2019-03-16T15:58:12.780Z,5.02
2019-03-16T16:00:12.644Z,3.65
2019-03-16T16:02:12.787Z,3.33
2019-03-16T16:04:12.807Z,3.69
2019-03-16T16:06:12.817Z,4.88
2019-03-16T16:08:12.736Z,3.22
2019-03-16T16:10:12.618Z,5.21
2019-03-16T16:12:12.742Z,3.49
2019-03-16T16:14:12.843Z,4.16
2019-03-16T16:16:12.981Z,4.26
2019-03-16T16:18:13.191Z,4.05
2019-03-16T16:20:12.804Z,3.59
2019-03-16T16:22:12.713Z,2.77
2019-03-16T16:24:13.124Z,4.20
2019-03-16T16:26:12.832Z,3.12
2019-03-16T16:28:12.738Z,2.39
2019-03-16T16:30:12.740Z,3.20
2019-03-16T16:32:12.842Z,2.78
2019-03-16T16:34:12.982Z,4.55
2019-03-16T16:36:12.951Z,4.38
2019-03-16T16:38:12.795Z,4.71
2019-03-16T16:40:12.805Z,4.15
2019-03-16T16:42:12.829Z,5.66
2019-03-16T16:44:12.971Z,4.80
2019-03-16T16:46:12.849Z,4.38
2019-03-16T16:48:12.853Z,3.94
2019-03-16T16:50:12.668Z,3.13
2019-03-16T16:52:12.779Z,3.82
2019-03-16T16:54:13.196Z,3.27
2019-03-16T16:56:13.105Z,4.44
2019-03-16T16:58:15.324Z,3.13
2019-03-16T17:00:12.929Z,2.36
2019-03-16T17:02:12.839Z,3.08
2019-03-16T17:04:13.158Z,3.30
2019-03-16T17:06:12.977Z,3.83
2019-03-16T17:08:12.770Z,4.06
2019-03-16T17:10:12.862Z,3.74
2019-03-16T17:12:13.923Z,4.16
2019-03-16T17:14:12.838Z,3.55
2019-03-16T17:16:12.772Z,2.55
2019-03-16T17:18:12.935Z,3.35
2019-03-16T17:20:12.772Z,3.27
2019-03-16T17:22:12.962Z,2.88
2019-03-16T17:24:12.970Z,3.49
2019-03-16T17:26:12.568Z,2.04
2019-03-16T17:28:13.024Z,2.48
2019-03-16T17:30:13.242Z,2.03
2019-03-16T17:32:12.702Z,2.04
2019-03-16T17:34:12.633Z,1.87
2019-03-16T17:36:12.830Z,3.12
2019-03-16T17:38:12.844Z,2.87
2019-03-16T17:40:12.968Z,3.38
2019-03-16T17:42:12.662Z,2.69
2019-03-16T17:44:13.180Z,2.86
2019-03-16T17:46:12.547Z,2.62
2019-03-16T17:48:12.766Z,3.54
2019-03-16T17:50:13.223Z,2.66
2019-03-16T17:52:13.139Z,3.89
2019-03-16T17:54:13.356Z,2.80
2019-03-16T17:56:13.050Z,2.26
2019-03-16T17:58:12.956Z,2.41
2019-03-16T18:00:13.280Z,2.11
2019-03-16T18:02:13.109Z,2.09
2019-03-16T18:04:13.199Z,1.51
2019-03-16T18:06:13.205Z,2.99
2019-03-16T18:08:12.939Z,2.32
2019-03-16T18:10:12.593Z,1.69
2019-03-16T18:12:13.494Z,1.99
2019-03-16T18:14:12.947Z,1.70
2019-03-16T18:16:13.157Z,2.11
2019-03-16T18:18:12.967Z,2.10
2019-03-16T18:20:13.069Z,2.42
2019-03-16T18:22:13.207Z,1.73
2019-03-16T18:24:13.620Z,1.02
2019-03-16T18:26:13.145Z,2.11
2019-03-16T18:28:14.261Z,2.14
2019-03-16T18:30:13.344Z,2.54
2019-03-16T18:32:13.261Z,2.49
2019-03-16T18:34:13.470Z,2.18
2019-03-16T18:36:13.484Z,2.09
2019-03-16T18:38:13.068Z,1.66
2019-03-16T18:40:13.185Z,2.40
2019-03-16T18:42:13.217Z,2.31
2019-03-16T18:44:13.147Z,2.25
2019-03-16T18:46:13.235Z,2.08
2019-03-16T18:48:13.245Z,2.08
2019-03-16T18:50:13.309Z,2.18
2019-03-16T18:52:13.277Z,1.53
2019-03-16T18:54:13.085Z,1.44
2019-03-16T18:56:13.298Z,2.22
2019-03-16T18:58:13.412Z,1.40
2019-03-16T19:00:13.494Z,1.00
2019-03-16T19:02:20.728Z,1.64
2019-03-16T19:04:13.216Z,1.51
2019-03-16T19:06:13.117Z,1.63
2019-03-16T19:08:13.368Z,0.86
2019-03-16T19:10:13.161Z,1.23
2019-03-16T19:12:13.302Z,1.43
2019-03-16T19:14:13.298Z,1.45
2019-03-16T19:16:13.055Z,1.08
2019-03-16T19:18:13.297Z,2.18
2019-03-16T19:20:13.247Z,0.60
2019-03-16T19:22:13.405Z,1.88
2019-03-16T19:24:13.459Z,1.33
2019-03-16T19:26:13.292Z,0.29
2019-03-16T19:28:13.382Z,0.50
2019-03-16T19:30:13.295Z,1.26
2019-03-16T19:32:13.164Z,3.42
2019-03-16T19:34:13.419Z,0.30
2019-03-16T19:36:13.430Z,1.52
2019-03-16T19:38:13.486Z,1.68
2019-03-16T19:40:13.962Z,0.86
2019-03-16T19:42:13.386Z,1.19
2019-03-16T19:44:13.165Z,1.08
2019-03-16T19:46:13.344Z,2.74
2019-03-16T19:48:13.358Z,1.64
2019-03-16T19:50:13.523Z,1.72
2019-03-16T19:52:13.428Z,1.37
2019-03-16T19:54:13.436Z,2.33
2019-03-16T19:56:13.574Z,2.36
2019-03-16T19:58:13.232Z,2.43
2019-03-16T20:00:13.121Z,1.45
2019-03-16T20:02:13.478Z,1.39
2019-03-16T20:04:13.297Z,1.86
2019-03-16T20:06:24.829Z,2.13
2019-03-16T20:08:13.449Z,2.11
2019-03-16T20:10:13.425Z,3.16
2019-03-16T20:12:13.270Z,2.17
2019-03-16T20:14:13.241Z,1.53
2019-03-16T20:16:13.349Z,1.68
2019-03-16T20:18:13.167Z,1.21
2019-03-16T20:20:13.273Z,2.62
2019-03-16T20:22:13.282Z,1.96
2019-03-16T20:24:13.499Z,1.55
2019-03-16T20:26:13.406Z,0.56
2019-03-16T20:28:13.526Z,0.50
2019-03-16T20:30:13.433Z,1.50
2019-03-16T20:32:13.245Z,1.11
2019-03-16T20:34:13.092Z,0.76
2019-03-16T20:36:13.466Z,1.48
2019-03-16T20:38:13.119Z,0.60
2019-03-16T20:40:13.099Z,1.07
2019-03-16T20:42:13.093Z,0.82
2019-03-16T20:44:13.315Z,1.70
2019-03-16T20:46:12.916Z,1.11
2019-03-16T20:48:13.032Z,1.17
2019-03-16T20:50:13.106Z,1.23
2019-03-16T20:52:13.152Z,0.85
2019-03-16T20:54:13.170Z,1.12
2019-03-16T20:56:13.326Z,1.84
2019-03-16T20:58:12.778Z,1.72
2019-03-16T21:00:12.998Z,1.68
2019-03-16T21:02:13.045Z,0.97
2019-03-16T21:04:13.125Z,2.01
2019-03-16T21:06:12.823Z,1.34
2019-03-16T21:08:13.143Z,0.58
2019-03-16T21:10:13.156Z,0.78
2019-03-16T21:12:13.164Z,0.19
2019-03-16T21:14:13.181Z,0.31
2019-03-16T21:16:13.096Z,0.57
2019-03-16T21:18:12.936Z,0.33
2019-03-16T21:20:13.007Z,0.59
2019-03-16T21:22:13.431Z,0.24
2019-03-16T21:24:13.318Z,0.88
2019-03-16T21:26:13.045Z,0.28
2019-03-16T21:28:15.677Z,0.85
2019-03-16T21:30:13.152Z,0.74
2019-03-16T21:32:12.984Z,1.07
2019-03-16T21:34:13.402Z,0.69
2019-03-16T21:36:12.981Z,1.52
2019-03-16T21:38:13.219Z,0.91
2019-03-16T21:40:13.229Z,0.91
2019-03-16T21:42:12.951Z,1.02
2019-03-16T21:44:13.253Z,0.29
2019-03-16T21:46:13.161Z,0.20
2019-03-16T21:48:13.273Z,0.19
2019-03-16T21:50:13.194Z,1.09
2019-03-16T21:52:13.140Z,0.24
2019-03-16T21:54:13.076Z,0.01
2019-03-16T21:56:13.419Z,0.03
2019-03-16T21:58:13.126Z,0.17
2019-03-16T22:00:13.055Z,0.43
2019-03-16T22:02:13.360Z,0.09
2019-03-16T22:04:12.925Z,0.04
2019-03-16T22:06:13.168Z,0.11
2019-03-16T22:08:13.393Z,0.97
2019-03-16T22:10:13.098Z,0.42
2019-03-16T22:12:13.238Z,0.52
2019-03-16T22:14:13.021Z,0.58
2019-03-16T22:16:13.236Z,0.91
2019-03-16T22:18:13.243Z,0.99
2019-03-16T22:20:13.017Z,0.24
2019-03-16T22:22:13.263Z,0.44
2019-03-16T22:24:13.176Z,0.23
2019-03-16T22:26:13.089Z,0.21
2019-03-16T22:28:13.297Z,1.58
2019-03-16T22:30:13.006Z,0.76
2019-03-16T22:32:13.123Z,0.70
2019-03-16T22:34:13.009Z,0.05
2019-03-16T22:36:13.148Z,0.91
2019-03-16T22:38:12.949Z,0.98
2019-03-16T22:40:13.171Z,0.68
2019-03-16T22:42:13.381Z,0.20
2019-03-16T22:44:13.241Z,0.74
2019-03-16T22:46:13.440Z,1.02
2019-03-16T22:48:13.112Z,0.78
2019-03-16T22:50:13.243Z,0.34
2019-03-16T22:52:13.046Z,0.00
2019-03-16T22:54:13.073Z,0.02
2019-03-16T22:56:13.265Z,0.77
2019-03-16T22:58:13.274Z,0.06
2019-03-16T23:00:13.076Z,0.20
2019-03-16T23:02:13.082Z,0.32
2019-03-16T23:04:13.303Z,0.00
2019-03-16T23:06:13.109Z,0.60
2019-03-16T23:08:13.123Z,0.64
2019-03-16T23:10:13.154Z,0.18
2019-03-16T23:12:12.955Z,0.00
2019-03-16T23:14:13.099Z,0.33
2019-03-16T23:16:13.176Z,0.30
2019-03-16T23:18:13.286Z,0.04
2019-03-16T23:20:13.201Z,0.07
2019-03-16T23:22:13.063Z,0.33
2019-03-16T23:24:13.321Z,0.03
2019-03-16T23:26:13.165Z,0.71
2019-03-16T23:28:13.246Z,0.08
2019-03-16T23:30:13.268Z,0.11
2019-03-16T23:32:13.268Z,0.33
2019-03-16T23:34:19.103Z,0.72
2019-03-16T23:36:13.170Z,0.06
2019-03-16T23:38:13.220Z,0.35
2019-03-16T23:40:13.210Z,0.52
2019-03-16T23:42:13.322Z,1.12
2019-03-16T23:44:13.334Z,0.00
2019-03-16T23:46:13.346Z,0.16
2019-03-16T23:48:13.135Z,0.41
2019-03-16T23:50:13.267Z,1.07
2019-03-16T23:52:13.279Z,0.22
2019-03-16T23:54:13.393Z,0.87
2019-03-16T23:56:13.175Z,0.46
2019-03-16T23:58:13.152Z,0.91
